Accueil
METAR-TAF:

METAR-TAF

Aéroports :

Aéroport de Lydd

Lydd, Angleterre

latitude: 50-57N, longitude: 000-56E, altitude: 3 m

Observation

Le bulletin a été fait il y a 14 minutes, à 05:50 UTC
Vent 5 kt de est/sud-est
Température 4°C
Humidité 87%
Pression 1033 hPa
Visibilité 10 km ou plus

METAR: EGMD 240550Z AUTO 11005KT 9999 OVC015/// 04/02 Q1033

Heure: 06:04 (06:04 UTC)

Prévision

Le bulletin a été fait il y a 1 heure et 6 minutes, à 04:58 UTC
Prévision valable du 24 à 06 UTC au 24 à 15 UTC
Vent 6 kt de est/sud-est
Visibilité 10 km ou plus
Nuages fragmentés à une hauteur de 2000 ft
Probabilité 30% :
Temporairement
du 24 à 06 UTC au 24 à 15 UTC
Visibilité: 8000 m
Nuages fragmentés à une hauteur de 1200 ft

TAF: EGMD 240458Z 2406/2415 11006KT 9999 BKN020 PROB30 TEMPO 2406/2415 8000 BKN012

Observations et prévisions météorologiques de plus de 4000 aéroports (messages METAR et TAF).

Les stations disponibles sont représentées par des disques jaunes et rouges sur la carte.

Passer la souris dessus pour voir le nom de la station.

Cliquer dessus pour voir les observations et prévisions météorologiques.

Pour changer de carte: cliquez sur les boutons verts avec une croix noire pour zoomer, sur le bouton vert avec un tiret pour effectuer un zoom arrière, ou sur les flèches vertes pour les cartes adjacentes.


METAR-TAF: